sensor_id;sensor_type;location;lat;lon;timestamp;P1;durP1;ratioP1;P2;durP2;ratioP2
52208;SDS011;38507;53.132;6.394;2024-02-21T00:00:45;24.40;;;4.07;;
52208;SDS011;38507;53.132;6.394;2024-02-21T00:03:11;20.90;;;4.35;;
52208;SDS011;38507;53.132;6.394;2024-02-21T00:05:36;19.58;;;4.28;;
52208;SDS011;38507;53.132;6.394;2024-02-21T00:08:02;23.90;;;4.30;;
52208;SDS011;38507;53.132;6.394;2024-02-21T00:10:28;21.92;;;3.75;;
52208;SDS011;38507;53.132;6.394;2024-02-21T00:12:54;22.77;;;4.30;;
52208;SDS011;38507;53.132;6.394;2024-02-21T00:15:19;34.13;;;4.07;;
52208;SDS011;38507;53.132;6.394;2024-02-21T00:17:46;20.92;;;3.90;;
52208;SDS011;38507;53.132;6.394;2024-02-21T00:20:12;23.23;;;3.67;;
52208;SDS011;38507;53.132;6.394;2024-02-21T00:22:38;17.20;;;3.17;;
52208;SDS011;38507;53.132;6.394;2024-02-21T00:25:03;23.58;;;3.67;;
52208;SDS011;38507;53.132;6.394;2024-02-21T00:27:29;17.90;;;3.83;;
52208;SDS011;38507;53.132;6.394;2024-02-21T00:29:56;23.05;;;4.05;;
52208;SDS011;38507;53.132;6.394;2024-02-21T00:32:21;21.35;;;4.47;;
52208;SDS011;38507;53.132;6.394;2024-02-21T00:34:47;19.35;;;3.85;;
52208;SDS011;38507;53.132;6.394;2024-02-21T00:37:13;20.90;;;4.03;;
52208;SDS011;38507;53.132;6.394;2024-02-21T00:39:38;21.02;;;4.15;;
52208;SDS011;38507;53.132;6.394;2024-02-21T00:42:04;17.80;;;4.10;;
52208;SDS011;38507;53.132;6.394;2024-02-21T00:44:29;22.23;;;4.82;;
52208;SDS011;38507;53.132;6.394;2024-02-21T00:46:55;24.60;;;4.78;;
52208;SDS011;38507;53.132;6.394;2024-02-21T00:49:21;30.20;;;5.00;;
52208;SDS011;38507;53.132;6.394;2024-02-21T00:51:46;25.05;;;5.10;;
52208;SDS011;38507;53.132;6.394;2024-02-21T00:54:12;20.90;;;5.07;;
52208;SDS011;38507;53.132;6.394;2024-02-21T00:56:38;21.52;;;4.63;;
52208;SDS011;38507;53.132;6.394;2024-02-21T00:59:03;23.92;;;5.45;;
52208;SDS011;38507;53.132;6.394;2024-02-21T01:01:29;22.33;;;5.60;;
52208;SDS011;38507;53.132;6.394;2024-02-21T01:03:55;28.85;;;5.63;;
52208;SDS011;38507;53.132;6.394;2024-02-21T01:06:20;25.55;;;5.18;;
52208;SDS011;38507;53.132;6.394;2024-02-21T01:08:46;23.67;;;5.78;;
52208;SDS011;38507;53.132;6.394;2024-02-21T01:11:15;33.90;;;6.13;;
52208;SDS011;38507;53.132;6.394;2024-02-21T01:13:41;24.05;;;5.80;;
52208;SDS011;38507;53.132;6.394;2024-02-21T01:16:07;22.38;;;5.03;;
52208;SDS011;38507;53.132;6.394;2024-02-21T01:18:33;24.08;;;5.82;;
52208;SDS011;38507;53.132;6.394;2024-02-21T01:20:59;20.98;;;4.10;;
52208;SDS011;38507;53.132;6.394;2024-02-21T01:23:25;20.23;;;5.25;;
52208;SDS011;38507;53.132;6.394;2024-02-21T01:25:51;28.33;;;5.35;;
52208;SDS011;38507;53.132;6.394;2024-02-21T01:28:17;24.15;;;6.75;;
52208;SDS011;38507;53.132;6.394;2024-02-21T01:30:45;32.83;;;7.13;;
52208;SDS011;38507;53.132;6.394;2024-02-21T01:33:11;37.70;;;6.43;;
52208;SDS011;38507;53.132;6.394;2024-02-21T01:35:36;19.25;;;6.15;;
52208;SDS011;38507;53.132;6.394;2024-02-21T01:38:02;33.20;;;6.90;;
52208;SDS011;38507;53.132;6.394;2024-02-21T01:40:29;26.27;;;6.60;;
52208;SDS011;38507;53.132;6.394;2024-02-21T01:42:55;29.88;;;6.30;;
52208;SDS011;38507;53.132;6.394;2024-02-21T01:45:21;18.25;;;5.28;;
52208;SDS011;38507;53.132;6.394;2024-02-21T01:47:46;19.75;;;5.93;;
52208;SDS011;38507;53.132;6.394;2024-02-21T01:50:13;15.85;;;4.90;;
52208;SDS011;38507;53.132;6.394;2024-02-21T01:52:40;18.00;;;5.38;;
52208;SDS011;38507;53.132;6.394;2024-02-21T01:55:08;17.98;;;5.35;;
52208;SDS011;38507;53.132;6.394;2024-02-21T01:57:35;17.88;;;5.28;;
52208;SDS011;38507;53.132;6.394;2024-02-21T02:00:01;17.17;;;6.07;;
52208;SDS011;38507;53.132;6.394;2024-02-21T02:02:27;20.75;;;5.70;;
52208;SDS011;38507;53.132;6.394;2024-02-21T02:04:54;16.10;;;5.10;;
52208;SDS011;38507;53.132;6.394;2024-02-21T02:07:20;24.80;;;5.55;;
52208;SDS011;38507;53.132;6.394;2024-02-21T02:09:45;15.40;;;5.25;;
52208;SDS011;38507;53.132;6.394;2024-02-21T02:12:11;28.52;;;6.43;;
52208;SDS011;38507;53.132;6.394;2024-02-21T02:14:37;24.33;;;5.78;;
52208;SDS011;38507;53.132;6.394;2024-02-21T02:17:02;22.15;;;4.93;;
52208;SDS011;38507;53.132;6.394;2024-02-21T02:19:29;22.60;;;5.00;;
52208;SDS011;38507;53.132;6.394;2024-02-21T02:21:56;20.80;;;5.47;;
52208;SDS011;38507;53.132;6.394;2024-02-21T02:24:27;22.48;;;5.35;;
52208;SDS011;38507;53.132;6.394;2024-02-21T02:26:53;24.25;;;6.00;;
52208;SDS011;38507;53.132;6.394;2024-02-21T02:29:19;23.33;;;5.70;;
52208;SDS011;38507;53.132;6.394;2024-02-21T02:31:44;22.00;;;5.70;;
52208;SDS011;38507;53.132;6.394;2024-02-21T02:34:10;29.00;;;6.15;;
52208;SDS011;38507;53.132;6.394;2024-02-21T02:36:36;32.25;;;6.20;;
52208;SDS011;38507;53.132;6.394;2024-02-21T02:39:01;29.67;;;6.50;;
52208;SDS011;38507;53.132;6.394;2024-02-21T02:41:27;25.77;;;5.85;;
52208;SDS011;38507;53.132;6.394;2024-02-21T02:43:52;22.60;;;5.20;;
52208;SDS011;38507;53.132;6.394;2024-02-21T02:46:18;30.75;;;6.47;;
52208;SDS011;38507;53.132;6.394;2024-02-21T02:48:44;25.52;;;5.70;;
52208;SDS011;38507;53.132;6.394;2024-02-21T02:51:10;33.67;;;6.28;;
52208;SDS011;38507;53.132;6.394;2024-02-21T02:53:35;23.02;;;6.10;;
52208;SDS011;38507;53.132;6.394;2024-02-21T02:56:01;29.88;;;5.65;;
52208;SDS011;38507;53.132;6.394;2024-02-21T02:58:28;28.38;;;6.18;;
52208;SDS011;38507;53.132;6.394;2024-02-21T03:00:53;20.35;;;5.05;;
52208;SDS011;38507;53.132;6.394;2024-02-21T03:03:19;27.15;;;7.35;;
52208;SDS011;38507;53.132;6.394;2024-02-21T03:05:45;29.80;;;6.45;;
52208;SDS011;38507;53.132;6.394;2024-02-21T03:08:11;26.70;;;6.22;;
52208;SDS011;38507;53.132;6.394;2024-02-21T03:10:36;37.70;;;8.05;;
52208;SDS011;38507;53.132;6.394;2024-02-21T03:13:02;35.10;;;6.55;;
52208;SDS011;38507;53.132;6.394;2024-02-21T03:15:28;34.47;;;6.97;;
52208;SDS011;38507;53.132;6.394;2024-02-21T03:17:54;28.83;;;6.55;;
52208;SDS011;38507;53.132;6.394;2024-02-21T03:20:20;30.00;;;6.65;;
52208;SDS011;38507;53.132;6.394;2024-02-21T03:22:45;34.30;;;6.68;;
52208;SDS011;38507;53.132;6.394;2024-02-21T03:25:11;32.22;;;6.03;;
52208;SDS011;38507;53.132;6.394;2024-02-21T03:27:39;28.73;;;6.10;;
52208;SDS011;38507;53.132;6.394;2024-02-21T03:30:04;35.00;;;6.63;;
52208;SDS011;38507;53.132;6.394;2024-02-21T03:32:30;30.45;;;6.18;;
52208;SDS011;38507;53.132;6.394;2024-02-21T03:34:56;28.50;;;5.65;;
52208;SDS011;38507;53.132;6.394;2024-02-21T03:37:22;28.65;;;6.03;;
52208;SDS011;38507;53.132;6.394;2024-02-21T03:39:47;34.65;;;5.78;;
52208;SDS011;38507;53.132;6.394;2024-02-21T03:42:13;35.88;;;6.10;;
52208;SDS011;38507;53.132;6.394;2024-02-21T03:44:39;30.65;;;5.43;;
52208;SDS011;38507;53.132;6.394;2024-02-21T03:47:04;33.22;;;6.93;;
52208;SDS011;38507;53.132;6.394;2024-02-21T03:49:30;37.28;;;7.10;;
52208;SDS011;38507;53.132;6.394;2024-02-21T03:51:56;31.92;;;6.30;;
52208;SDS011;38507;53.132;6.394;2024-02-21T03:54:21;40.42;;;7.15;;
52208;SDS011;38507;53.132;6.394;2024-02-21T03:56:47;31.13;;;7.18;;
52208;SDS011;38507;53.132;6.394;2024-02-21T03:59:14;36.70;;;7.28;;
52208;SDS011;38507;53.132;6.394;2024-02-21T04:01:40;30.02;;;6.50;;
52208;SDS011;38507;53.132;6.394;2024-02-21T04:04:05;38.83;;;6.55;;
52208;SDS011;38507;53.132;6.394;2024-02-21T04:06:31;25.23;;;6.50;;
52208;SDS011;38507;53.132;6.394;2024-02-21T04:08:57;29.58;;;6.78;;
52208;SDS011;38507;53.132;6.394;2024-02-21T04:11:23;29.73;;;7.00;;
52208;SDS011;38507;53.132;6.394;2024-02-21T04:13:48;37.00;;;7.00;;
52208;SDS011;38507;53.132;6.394;2024-02-21T04:16:15;37.67;;;7.30;;
52208;SDS011;38507;53.132;6.394;2024-02-21T04:18:41;36.88;;;7.63;;
52208;SDS011;38507;53.132;6.394;2024-02-21T04:21:08;29.35;;;6.47;;
52208;SDS011;38507;53.132;6.394;2024-02-21T04:23:34;37.85;;;7.57;;
52208;SDS011;38507;53.132;6.394;2024-02-21T04:26:00;30.50;;;6.30;;
52208;SDS011;38507;53.132;6.394;2024-02-21T04:28:26;29.10;;;7.47;;
52208;SDS011;38507;53.132;6.394;2024-02-21T04:30:51;28.58;;;7.00;;
52208;SDS011;38507;53.132;6.394;2024-02-21T04:33:17;30.17;;;7.13;;
52208;SDS011;38507;53.132;6.394;2024-02-21T04:35:43;26.38;;;7.10;;
52208;SDS011;38507;53.132;6.394;2024-02-21T04:38:09;32.90;;;7.35;;
52208;SDS011;38507;53.132;6.394;2024-02-21T04:40:35;35.38;;;6.95;;
52208;SDS011;38507;53.132;6.394;2024-02-21T04:43:00;31.40;;;6.40;;
52208;SDS011;38507;53.132;6.394;2024-02-21T04:45:26;27.17;;;6.68;;
52208;SDS011;38507;53.132;6.394;2024-02-21T04:47:51;43.53;;;7.10;;
52208;SDS011;38507;53.132;6.394;2024-02-21T04:50:17;28.77;;;7.78;;
52208;SDS011;38507;53.132;6.394;2024-02-21T04:52:43;32.13;;;6.63;;
52208;SDS011;38507;53.132;6.394;2024-02-21T04:55:08;35.33;;;6.85;;
52208;SDS011;38507;53.132;6.394;2024-02-21T04:57:34;29.23;;;7.80;;
52208;SDS011;38507;53.132;6.394;2024-02-21T05:00:00;33.83;;;6.45;;
52208;SDS011;38507;53.132;6.394;2024-02-21T05:02:25;30.00;;;6.30;;
52208;SDS011;38507;53.132;6.394;2024-02-21T05:04:52;36.00;;;6.95;;
52208;SDS011;38507;53.132;6.394;2024-02-21T05:07:18;33.50;;;6.47;;
52208;SDS011;38507;53.132;6.394;2024-02-21T05:09:44;28.60;;;6.15;;
52208;SDS011;38507;53.132;6.394;2024-02-21T05:12:10;28.98;;;5.70;;
52208;SDS011;38507;53.132;6.394;2024-02-21T05:14:36;32.95;;;6.18;;
52208;SDS011;38507;53.132;6.394;2024-02-21T05:17:02;31.02;;;6.80;;
52208;SDS011;38507;53.132;6.394;2024-02-21T05:19:31;30.00;;;7.05;;
52208;SDS011;38507;53.132;6.394;2024-02-21T05:21:58;33.20;;;7.38;;
52208;SDS011;38507;53.132;6.394;2024-02-21T05:24:24;32.80;;;6.63;;
52208;SDS011;38507;53.132;6.394;2024-02-21T05:26:50;30.92;;;6.20;;
52208;SDS011;38507;53.132;6.394;2024-02-21T05:29:16;28.83;;;6.68;;
52208;SDS011;38507;53.132;6.394;2024-02-21T05:34:16;30.23;;;6.78;;
52208;SDS011;38507;53.132;6.394;2024-02-21T05:36:42;28.25;;;6.70;;
52208;SDS011;38507;53.132;6.394;2024-02-21T05:39:08;41.00;;;7.68;;
52208;SDS011;38507;53.132;6.394;2024-02-21T05:41:34;30.85;;;7.55;;
52208;SDS011;38507;53.132;6.394;2024-02-21T05:43:59;30.88;;;7.05;;
52208;SDS011;38507;53.132;6.394;2024-02-21T05:46:25;30.30;;;6.75;;
52208;SDS011;38507;53.132;6.394;2024-02-21T05:48:50;26.98;;;6.47;;
52208;SDS011;38507;53.132;6.394;2024-02-21T05:51:16;26.77;;;7.05;;
52208;SDS011;38507;53.132;6.394;2024-02-21T05:53:42;31.38;;;7.20;;
52208;SDS011;38507;53.132;6.394;2024-02-21T05:56:11;28.60;;;6.53;;
52208;SDS011;38507;53.132;6.394;2024-02-21T05:58:37;36.75;;;7.63;;
52208;SDS011;38507;53.132;6.394;2024-02-21T06:01:03;30.80;;;6.85;;
52208;SDS011;38507;53.132;6.394;2024-02-21T06:03:29;28.73;;;7.07;;
52208;SDS011;38507;53.132;6.394;2024-02-21T06:05:55;30.10;;;7.40;;
52208;SDS011;38507;53.132;6.394;2024-02-21T06:08:21;38.22;;;7.72;;
52208;SDS011;38507;53.132;6.394;2024-02-21T06:10:47;30.27;;;6.90;;
52208;SDS011;38507;53.132;6.394;2024-02-21T06:13:13;32.17;;;7.60;;
52208;SDS011;38507;53.132;6.394;2024-02-21T06:15:39;31.15;;;7.30;;
52208;SDS011;38507;53.132;6.394;2024-02-21T06:18:05;32.55;;;7.45;;
52208;SDS011;38507;53.132;6.394;2024-02-21T06:20:31;32.30;;;7.50;;
52208;SDS011;38507;53.132;6.394;2024-02-21T06:22:57;30.30;;;7.93;;
52208;SDS011;38507;53.132;6.394;2024-02-21T06:25:22;33.38;;;8.80;;
52208;SDS011;38507;53.132;6.394;2024-02-21T06:27:48;32.75;;;8.88;;
52208;SDS011;38507;53.132;6.394;2024-02-21T06:30:14;40.55;;;9.73;;
52208;SDS011;38507;53.132;6.394;2024-02-21T06:32:39;31.90;;;8.77;;
52208;SDS011;38507;53.132;6.394;2024-02-21T06:35:05;35.17;;;8.63;;
52208;SDS011;38507;53.132;6.394;2024-02-21T06:37:31;37.85;;;8.85;;
52208;SDS011;38507;53.132;6.394;2024-02-21T06:39:57;31.83;;;8.48;;
52208;SDS011;38507;53.132;6.394;2024-02-21T06:42:26;42.65;;;10.05;;
52208;SDS011;38507;53.132;6.394;2024-02-21T06:44:52;36.28;;;8.70;;
52208;SDS011;38507;53.132;6.394;2024-02-21T06:47:17;34.40;;;8.95;;
52208;SDS011;38507;53.132;6.394;2024-02-21T06:49:43;53.28;;;10.52;;
52208;SDS011;38507;53.132;6.394;2024-02-21T06:52:14;42.70;;;10.77;;
52208;SDS011;38507;53.132;6.394;2024-02-21T06:54:42;55.92;;;12.18;;
52208;SDS011;38507;53.132;6.394;2024-02-21T06:57:08;57.33;;;14.15;;
52208;SDS011;38507;53.132;6.394;2024-02-21T06:59:33;61.20;;;15.95;;
52208;SDS011;38507;53.132;6.394;2024-02-21T07:01:59;68.03;;;17.25;;
52208;SDS011;38507;53.132;6.394;2024-02-21T07:04:25;63.30;;;17.92;;
52208;SDS011;38507;53.132;6.394;2024-02-21T07:06:52;61.35;;;15.93;;
52208;SDS011;38507;53.132;6.394;2024-02-21T07:09:18;61.65;;;17.35;;
52208;SDS011;38507;53.132;6.394;2024-02-21T07:11:43;63.33;;;15.73;;
52208;SDS011;38507;53.132;6.394;2024-02-21T07:14:09;68.20;;;14.75;;
52208;SDS011;38507;53.132;6.394;2024-02-21T07:16:34;71.97;;;14.43;;
52208;SDS011;38507;53.132;6.394;2024-02-21T07:19:00;62.00;;;14.10;;
52208;SDS011;38507;53.132;6.394;2024-02-21T07:21:27;52.88;;;13.73;;
52208;SDS011;38507;53.132;6.394;2024-02-21T07:23:53;61.80;;;13.50;;
52208;SDS011;38507;53.132;6.394;2024-02-21T07:26:18;65.90;;;12.75;;
52208;SDS011;38507;53.132;6.394;2024-02-21T07:28:44;57.28;;;12.48;;
52208;SDS011;38507;53.132;6.394;2024-02-21T07:31:10;53.20;;;12.07;;
52208;SDS011;38507;53.132;6.394;2024-02-21T07:33:35;59.25;;;11.52;;
52208;SDS011;38507;53.132;6.394;2024-02-21T07:36:01;46.75;;;10.43;;
52208;SDS011;38507;53.132;6.394;2024-02-21T07:38:30;40.80;;;9.07;;
52208;SDS011;38507;53.132;6.394;2024-02-21T07:40:56;35.63;;;8.38;;
52208;SDS011;38507;53.132;6.394;2024-02-21T07:43:21;28.98;;;7.32;;
52208;SDS011;38507;53.132;6.394;2024-02-21T07:45:47;37.78;;;8.38;;
52208;SDS011;38507;53.132;6.394;2024-02-21T07:48:13;32.40;;;8.48;;
52208;SDS011;38507;53.132;6.394;2024-02-21T07:50:38;33.17;;;7.20;;
52208;SDS011;38507;53.132;6.394;2024-02-21T07:53:04;37.15;;;7.57;;
52208;SDS011;38507;53.132;6.394;2024-02-21T07:55:29;26.17;;;6.88;;
52208;SDS011;38507;53.132;6.394;2024-02-21T07:57:55;32.15;;;7.45;;
52208;SDS011;38507;53.132;6.394;2024-02-21T08:00:21;23.42;;;6.22;;
52208;SDS011;38507;53.132;6.394;2024-02-21T08:02:48;25.58;;;6.45;;
52208;SDS011;38507;53.132;6.394;2024-02-21T08:05:14;30.85;;;6.32;;
52208;SDS011;38507;53.132;6.394;2024-02-21T08:07:39;28.00;;;6.68;;
52208;SDS011;38507;53.132;6.394;2024-02-21T08:10:05;25.15;;;6.28;;
52208;SDS011;38507;53.132;6.394;2024-02-21T08:12:34;23.17;;;7.22;;
52208;SDS011;38507;53.132;6.394;2024-02-21T08:15:00;24.85;;;7.20;;
52208;SDS011;38507;53.132;6.394;2024-02-21T08:17:28;28.73;;;7.35;;
52208;SDS011;38507;53.132;6.394;2024-02-21T08:19:54;30.77;;;7.53;;
52208;SDS011;38507;53.132;6.394;2024-02-21T08:22:19;29.10;;;7.25;;
52208;SDS011;38507;53.132;6.394;2024-02-21T08:24:45;23.33;;;7.97;;
52208;SDS011;38507;53.132;6.394;2024-02-21T08:27:11;24.35;;;6.80;;
52208;SDS011;38507;53.132;6.394;2024-02-21T08:29:36;24.08;;;7.22;;
52208;SDS011;38507;53.132;6.394;2024-02-21T08:32:02;33.85;;;8.32;;
52208;SDS011;38507;53.132;6.394;2024-02-21T08:34:28;24.25;;;7.65;;
52208;SDS011;38507;53.132;6.394;2024-02-21T08:36:55;29.17;;;7.90;;
52208;SDS011;38507;53.132;6.394;2024-02-21T08:39:21;27.90;;;9.52;;
52208;SDS011;38507;53.132;6.394;2024-02-21T08:41:46;33.28;;;10.75;;
52208;SDS011;38507;53.132;6.394;2024-02-21T08:44:12;36.00;;;11.80;;
52208;SDS011;38507;53.132;6.394;2024-02-21T08:46:38;34.85;;;12.52;;
52208;SDS011;38507;53.132;6.394;2024-02-21T08:49:05;34.00;;;11.98;;
52208;SDS011;38507;53.132;6.394;2024-02-21T08:51:31;32.55;;;13.20;;
52208;SDS011;38507;53.132;6.394;2024-02-21T08:53:57;29.50;;;13.55;;
52208;SDS011;38507;53.132;6.394;2024-02-21T08:56:23;36.15;;;13.90;;
52208;SDS011;38507;53.132;6.394;2024-02-21T08:58:49;30.65;;;13.95;;
52208;SDS011;38507;53.132;6.394;2024-02-21T09:01:15;31.30;;;13.95;;
52208;SDS011;38507;53.132;6.394;2024-02-21T09:03:40;38.58;;;14.45;;
52208;SDS011;38507;53.132;6.394;2024-02-21T09:06:06;35.22;;;14.43;;
52208;SDS011;38507;53.132;6.394;2024-02-21T09:08:33;31.20;;;14.90;;
52208;SDS011;38507;53.132;6.394;2024-02-21T09:11:02;29.55;;;14.93;;
52208;SDS011;38507;53.132;6.394;2024-02-21T09:13:28;31.40;;;15.43;;
52208;SDS011;38507;53.132;6.394;2024-02-21T09:15:55;36.90;;;15.85;;
52208;SDS011;38507;53.132;6.394;2024-02-21T09:18:20;31.48;;;16.25;;
52208;SDS011;38507;53.132;6.394;2024-02-21T09:20:46;30.45;;;17.23;;
52208;SDS011;38507;53.132;6.394;2024-02-21T09:23:12;33.28;;;16.27;;
52208;SDS011;38507;53.132;6.394;2024-02-21T09:25:38;34.70;;;16.77;;
52208;SDS011;38507;53.132;6.394;2024-02-21T09:28:05;28.00;;;16.08;;
52208;SDS011;38507;53.132;6.394;2024-02-21T09:30:31;35.13;;;16.45;;
52208;SDS011;38507;53.132;6.394;2024-02-21T09:32:57;38.17;;;16.75;;
52208;SDS011;38507;53.132;6.394;2024-02-21T09:35:27;30.25;;;15.43;;
52208;SDS011;38507;53.132;6.394;2024-02-21T09:37:53;33.15;;;16.17;;
52208;SDS011;38507;53.132;6.394;2024-02-21T09:40:20;33.25;;;16.48;;
52208;SDS011;38507;53.132;6.394;2024-02-21T09:42:46;31.60;;;16.63;;
52208;SDS011;38507;53.132;6.394;2024-02-21T09:45:25;28.58;;;16.02;;
52208;SDS011;38507;53.132;6.394;2024-02-21T09:50:34;29.10;;;16.55;;
52208;SDS011;38507;53.132;6.394;2024-02-21T09:53:01;31.27;;;16.17;;
52208;SDS011;38507;53.132;6.394;2024-02-21T09:55:29;30.70;;;16.50;;
52208;SDS011;38507;53.132;6.394;2024-02-21T09:57:59;31.60;;;15.90;;
52208;SDS011;38507;53.132;6.394;2024-02-21T10:00:29;33.75;;;16.20;;
52208;SDS011;38507;53.132;6.394;2024-02-21T10:02:55;29.00;;;15.55;;
52208;SDS011;38507;53.132;6.394;2024-02-21T10:05:21;29.05;;;15.65;;
52208;SDS011;38507;53.132;6.394;2024-02-21T10:07:47;30.85;;;16.70;;
52208;SDS011;38507;53.132;6.394;2024-02-21T10:10:14;28.02;;;16.30;;
52208;SDS011;38507;53.132;6.394;2024-02-21T10:12:47;30.58;;;16.48;;
52208;SDS011;38507;53.132;6.394;2024-02-21T10:15:19;26.10;;;15.87;;
52208;SDS011;38507;53.132;6.394;2024-02-21T10:17:46;31.48;;;15.95;;
52208;SDS011;38507;53.132;6.394;2024-02-21T10:20:12;34.88;;;16.60;;
52208;SDS011;38507;53.132;6.394;2024-02-21T10:22:39;31.92;;;17.10;;
52208;SDS011;38507;53.132;6.394;2024-02-21T10:27:34;29.52;;;16.95;;
52208;SDS011;38507;53.132;6.394;2024-02-21T10:30:01;29.15;;;18.55;;
52208;SDS011;38507;53.132;6.394;2024-02-21T10:32:27;36.42;;;18.98;;
52208;SDS011;38507;53.132;6.394;2024-02-21T10:35:00;28.27;;;18.98;;
52208;SDS011;38507;53.132;6.394;2024-02-21T10:37:28;28.60;;;18.50;;
52208;SDS011;38507;53.132;6.394;2024-02-21T10:39:53;34.75;;;18.48;;
52208;SDS011;38507;53.132;6.394;2024-02-21T10:42:21;28.52;;;18.00;;
52208;SDS011;38507;53.132;6.394;2024-02-21T10:44:47;30.58;;;19.42;;
52208;SDS011;38507;53.132;6.394;2024-02-21T10:47:19;39.35;;;19.27;;
52208;SDS011;38507;53.132;6.394;2024-02-21T10:49:49;39.67;;;20.27;;
52208;SDS011;38507;53.132;6.394;2024-02-21T10:55:46;30.33;;;19.98;;
52208;SDS011;38507;53.132;6.394;2024-02-21T10:57:52;35.95;;;19.10;;
52208;SDS011;38507;53.132;6.394;2024-02-21T11:00:18;38.20;;;18.38;;
52208;SDS011;38507;53.132;6.394;2024-02-21T11:02:45;34.90;;;20.65;;
52208;SDS011;38507;53.132;6.394;2024-02-21T11:05:12;35.08;;;19.90;;
52208;SDS011;38507;53.132;6.394;2024-02-21T11:07:38;38.75;;;20.13;;
52208;SDS011;38507;53.132;6.394;2024-02-21T11:10:05;32.83;;;19.13;;
52208;SDS011;38507;53.132;6.394;2024-02-21T11:12:33;31.90;;;19.00;;
52208;SDS011;38507;53.132;6.394;2024-02-21T11:15:08;31.00;;;17.95;;
52208;SDS011;38507;53.132;6.394;2024-02-21T11:17:33;25.95;;;16.50;;
52208;SDS011;38507;53.132;6.394;2024-02-21T11:20:10;25.95;;;16.60;;
52208;SDS011;38507;53.132;6.394;2024-02-21T11:22:42;27.60;;;16.27;;
52208;SDS011;38507;53.132;6.394;2024-02-21T11:25:08;29.50;;;17.08;;
52208;SDS011;38507;53.132;6.394;2024-02-21T11:27:37;24.98;;;16.90;;
52208;SDS011;38507;53.132;6.394;2024-02-21T11:30:04;24.80;;;14.65;;
52208;SDS011;38507;53.132;6.394;2024-02-21T11:32:30;24.60;;;16.02;;
52208;SDS011;38507;53.132;6.394;2024-02-21T11:35:03;24.05;;;15.18;;
52208;SDS011;38507;53.132;6.394;2024-02-21T11:37:32;30.48;;;14.85;;
52208;SDS011;38507;53.132;6.394;2024-02-21T11:39:59;26.67;;;13.75;;
52208;SDS011;38507;53.132;6.394;2024-02-21T11:42:28;26.77;;;13.73;;
52208;SDS011;38507;53.132;6.394;2024-02-21T11:44:55;23.33;;;13.45;;
52208;SDS011;38507;53.132;6.394;2024-02-21T11:47:22;21.77;;;13.68;;
52208;SDS011;38507;53.132;6.394;2024-02-21T11:49:48;26.88;;;12.85;;
52208;SDS011;38507;53.132;6.394;2024-02-21T11:52:18;21.02;;;12.45;;
52208;SDS011;38507;53.132;6.394;2024-02-21T11:54:47;25.92;;;12.35;;
52208;SDS011;38507;53.132;6.394;2024-02-21T11:57:13;18.00;;;11.77;;
52208;SDS011;38507;53.132;6.394;2024-02-21T11:59:40;19.40;;;11.27;;
52208;SDS011;38507;53.132;6.394;2024-02-21T12:02:06;24.33;;;12.18;;
52208;SDS011;38507;53.132;6.394;2024-02-21T12:04:32;22.42;;;11.88;;
52208;SDS011;38507;53.132;6.394;2024-02-21T12:06:58;21.17;;;11.68;;
52208;SDS011;38507;53.132;6.394;2024-02-21T12:09:24;24.38;;;10.57;;
52208;SDS011;38507;53.132;6.394;2024-02-21T12:12:00;19.65;;;10.45;;
52208;SDS011;38507;53.132;6.394;2024-02-21T12:14:31;21.40;;;10.50;;
52208;SDS011;38507;53.132;6.394;2024-02-21T12:16:58;19.92;;;10.95;;
52208;SDS011;38507;53.132;6.394;2024-02-21T12:19:24;17.67;;;10.10;;
52208;SDS011;38507;53.132;6.394;2024-02-21T12:21:50;18.85;;;10.23;;
52208;SDS011;38507;53.132;6.394;2024-02-21T12:24:20;16.63;;;10.02;;
52208;SDS011;38507;53.132;6.394;2024-02-21T12:26:50;19.98;;;10.30;;
52208;SDS011;38507;53.132;6.394;2024-02-21T12:29:22;15.68;;;9.75;;
52208;SDS011;38507;53.132;6.394;2024-02-21T12:31:49;19.52;;;10.52;;
52208;SDS011;38507;53.132;6.394;2024-02-21T12:34:15;22.10;;;10.48;;
52208;SDS011;38507;53.132;6.394;2024-02-21T12:36:42;23.38;;;10.43;;
52208;SDS011;38507;53.132;6.394;2024-02-21T12:39:09;16.67;;;9.90;;
52208;SDS011;38507;53.132;6.394;2024-02-21T12:41:35;16.38;;;9.20;;
52208;SDS011;38507;53.132;6.394;2024-02-21T12:44:12;14.32;;;8.50;;
52208;SDS011;38507;53.132;6.394;2024-02-21T12:46:38;22.60;;;9.73;;
52208;SDS011;38507;53.132;6.394;2024-02-21T12:49:05;16.83;;;8.63;;
52208;SDS011;38507;53.132;6.394;2024-02-21T12:51:32;15.70;;;8.75;;
52208;SDS011;38507;53.132;6.394;2024-02-21T12:53:58;15.90;;;8.90;;
52208;SDS011;38507;53.132;6.394;2024-02-21T12:56:24;14.38;;;7.95;;
52208;SDS011;38507;53.132;6.394;2024-02-21T12:58:51;17.02;;;8.45;;
52208;SDS011;38507;53.132;6.394;2024-02-21T13:01:16;13.68;;;8.15;;
52208;SDS011;38507;53.132;6.394;2024-02-21T13:03:42;16.30;;;8.80;;
52208;SDS011;38507;53.132;6.394;2024-02-21T13:06:08;15.35;;;8.65;;
52208;SDS011;38507;53.132;6.394;2024-02-21T13:08:38;12.93;;;7.60;;
52208;SDS011;38507;53.132;6.394;2024-02-21T13:11:04;13.90;;;7.78;;
52208;SDS011;38507;53.132;6.394;2024-02-21T13:13:30;14.70;;;7.32;;
52208;SDS011;38507;53.132;6.394;2024-02-21T13:15:57;15.80;;;7.22;;
52208;SDS011;38507;53.132;6.394;2024-02-21T13:18:23;11.48;;;6.50;;
52208;SDS011;38507;53.132;6.394;2024-02-21T13:20:48;15.40;;;7.63;;
52208;SDS011;38507;53.132;6.394;2024-02-21T13:23:14;13.52;;;6.65;;
52208;SDS011;38507;53.132;6.394;2024-02-21T13:25:40;12.80;;;7.35;;
52208;SDS011;38507;53.132;6.394;2024-02-21T13:28:05;15.32;;;7.00;;
52208;SDS011;38507;53.132;6.394;2024-02-21T13:30:32;10.50;;;6.47;;
52208;SDS011;38507;53.132;6.394;2024-02-21T13:32:57;10.75;;;6.13;;
52208;SDS011;38507;53.132;6.394;2024-02-21T13:35:23;10.35;;;5.93;;
52208;SDS011;38507;53.132;6.394;2024-02-21T13:37:49;10.15;;;6.55;;
52208;SDS011;38507;53.132;6.394;2024-02-21T13:40:15;9.98;;;6.40;;
52208;SDS011;38507;53.132;6.394;2024-02-21T13:42:41;11.23;;;5.88;;
52208;SDS011;38507;53.132;6.394;2024-02-21T13:45:08;10.15;;;5.53;;
52208;SDS011;38507;53.132;6.394;2024-02-21T13:47:34;10.73;;;5.88;;
52208;SDS011;38507;53.132;6.394;2024-02-21T13:50:01;10.82;;;5.55;;
52208;SDS011;38507;53.132;6.394;2024-02-21T13:52:32;7.97;;;5.80;;
52208;SDS011;38507;53.132;6.394;2024-02-21T13:54:58;9.07;;;5.13;;
52208;SDS011;38507;53.132;6.394;2024-02-21T13:57:24;9.18;;;5.35;;
52208;SDS011;38507;53.132;6.394;2024-02-21T13:59:54;11.38;;;5.40;;
52208;SDS011;38507;53.132;6.394;2024-02-21T14:02:20;10.75;;;6.10;;
52208;SDS011;38507;53.132;6.394;2024-02-21T14:04:46;9.32;;;5.50;;
52208;SDS011;38507;53.132;6.394;2024-02-21T14:07:12;9.23;;;5.65;;
52208;SDS011;38507;53.132;6.394;2024-02-21T14:09:38;7.93;;;5.22;;
52208;SDS011;38507;53.132;6.394;2024-02-21T14:12:14;8.50;;;5.47;;
52208;SDS011;38507;53.132;6.394;2024-02-21T14:14:43;10.25;;;5.45;;
52208;SDS011;38507;53.132;6.394;2024-02-21T14:17:09;9.77;;;5.28;;
52208;SDS011;38507;53.132;6.394;2024-02-21T14:19:35;9.13;;;5.60;;
52208;SDS011;38507;53.132;6.394;2024-02-21T14:22:00;9.15;;;5.80;;
52208;SDS011;38507;53.132;6.394;2024-02-21T14:24:27;9.27;;;5.32;;
52208;SDS011;38507;53.132;6.394;2024-02-21T14:26:53;8.75;;;5.57;;
52208;SDS011;38507;53.132;6.394;2024-02-21T14:29:20;9.30;;;5.55;;
52208;SDS011;38507;53.132;6.394;2024-02-21T14:31:46;9.82;;;5.63;;
52208;SDS011;38507;53.132;6.394;2024-02-21T14:34:12;10.85;;;5.60;;
52208;SDS011;38507;53.132;6.394;2024-02-21T14:36:37;9.73;;;5.43;;